^^
MeteoGriva-Weather Station Historical Data
Daily Summary for August 2, 2020 Units:  Metric    English   Both
Daily Weekly Monthly Yearly Custom
  High: Low: Average:
Temperature: 2.9 °C 2.5 °C 2.8 °C
Dew Point: 2.9 °C 0.8 °C 2.2 °C
Humidity: 100% 87.5% 96%
Wind Speed: 5km/h 1.1km/h 3.1km/h
Wind Gust: 7.9km/h - -
Wind- - NNE
Pressure: 1022.4 hPa 1022.0 hPa -
Precipitation: 0.0 mm    
Historical Graphs
 
 
Tabular Data for August 2, 2020
Time Temperature Dew Point Pressure Wind Wind Speed Wind Gust Humidity Rainfall Rate (Hourly) solar
00:04 2.6 °C 0.8 °C 1022.0 hPa North 3.4 km/h 6.4 km/h 87.5% 0.0 mm 0 W/m2
00:09 2.6 °C 0.8 °C 1022.0 hPa NNW 1.9 km/h 6.4 km/h 88% 0.0 mm 0 W/m2
00:14 2.7 °C 0.8 °C 1022.0 hPa North 3.6 km/h 6.1 km/h 88% 0.0 mm 0 W/m2
00:19 2.7 °C 0.8 °C 1022.0 hPa North 4.7 km/h 6.1 km/h 88% 0.0 mm 0 W/m2
00:24 2.6 °C 1 °C 1022.4 hPa North 5 km/h 6.4 km/h 88.9% 0.0 mm 0 W/m2
00:29 2.6 °C 1 °C 1022.4 hPa NNE 4 km/h 6.4 km/h 89.5% 0.0 mm 0 W/m2
00:34 2.5 °C 1 °C 1022.4 hPa NNE 3.6 km/h 5.5 km/h 89.6% 0.0 mm 0 W/m2
00:39 2.6 °C 1 °C 1022.4 hPa NNE 2.8 km/h 4.7 km/h 89.1% 0.0 mm 0 W/m2
00:44 2.6 °C 1 °C 1022.0 hPa NE 2.8 km/h 4.7 km/h 89.4% 0.0 mm 0 W/m2
00:49 2.6 °C 1.1 °C 1022.0 hPa NNE 3.2 km/h 4.7 km/h 90% 0.0 mm 0 W/m2
00:54 2.6 °C 1.3 °C 1022.0 hPa NNE 3.7 km/h 5 km/h 91% 0.0 mm 0 W/m2
00:59 2.6 °C 1.3 °C 1022.0 hPa NNE 3.2 km/h 5.8 km/h 91.6% 0.0 mm 0 W/m2
01:04 2.6 °C 1.4 °C 1022.0 hPa NNE 3.1 km/h 5 km/h 92% 0.0 mm 0 W/m2
01:09 2.6 °C 1.5 °C 1022.0 hPa NNE 3.5 km/h 5 km/h 92.4% 0.0 mm 0 W/m2
01:14 2.7 °C 1.7 °C 1022.0 hPa NNE 2.4 km/h 4.3 km/h 93% 0.0 mm 0 W/m2
01:19 2.8 °C 1.8 °C 1022.0 hPa North 2.9 km/h 4.7 km/h 93.8% 0.0 mm 0 W/m2
01:24 2.8 °C 1.9 °C 1022.0 hPa NNE 3.8 km/h 5 km/h 94% 0.0 mm 0 W/m2
01:29 2.9 °C 2 °C 1022.0 hPa NNE 3.2 km/h 5.5 km/h 94% 0.0 mm 0 W/m2
01:34 2.8 °C 2 °C 1022.0 hPa North 3.3 km/h 4.7 km/h 94.2% 0.0 mm 0 W/m2
01:39 2.8 °C 2.2 °C 1022.0 hPa North 2.1 km/h 4.3 km/h 95% 0.0 mm 0 W/m2
01:44 2.9 °C 2.2 °C 1022.0 hPa NNE 2.8 km/h 4.3 km/h 95% 0.0 mm 0 W/m2
01:49 2.9 °C 2.2 °C 1022.0 hPa NE 2.7 km/h 4.3 km/h 95% 0.0 mm 0 W/m2
01:54 2.9 °C 2.2 °C 1022.0 hPa NNE 3.1 km/h 4 km/h 95% 0.0 mm 0 W/m2
01:59 2.9 °C 2.3 °C 1022.0 hPa NNE 3.8 km/h 5 km/h 95.6% 0.0 mm 0 W/m2
02:04 2.8 °C 2.2 °C 1022.0 hPa NNE 3.7 km/h 5.5 km/h 96% 0.0 mm 0 W/m2
02:09 2.8 °C 2.3 °C 1022.0 hPa NNE 2.3 km/h 4.7 km/h 96.6% 0.0 mm 0 W/m2
02:14 2.8 °C 2.4 °C 1022.0 hPa NNE 3.2 km/h 4.7 km/h 97% 0.0 mm 0 W/m2
02:19 2.8 °C 2.4 °C 1022.0 hPa NNE 3.4 km/h 5 km/h 97% 0.0 mm 0 W/m2
02:24 2.8 °C 2.4 °C 1022.0 hPa NNE 3.7 km/h 5.5 km/h 97.2% 0.0 mm 0 W/m2
02:29 2.7 °C 2.4 °C 1022.0 hPa NE 3 km/h 4.7 km/h 98% 0.0 mm 0 W/m2
02:34 2.7 °C 2.4 °C 1022.0 hPa NNE 3.2 km/h 4.3 km/h 98% 0.0 mm 0 W/m2
02:39 2.8 °C 2.5 °C 1022.0 hPa NNE 3.1 km/h 5.5 km/h 98% 0.0 mm 0 W/m2
02:44 2.8 °C 2.5 °C 1022.0 hPa NNE 3.1 km/h 4.7 km/h 98% 0.0 mm 0 W/m2
02:49 2.8 °C 2.5 °C 1022.0 hPa NNE 2.1 km/h 4.7 km/h 98% 0.0 mm 0 W/m2
02:54 2.8 °C 2.6 °C 1022.0 hPa NNE 3.4 km/h 4.3 km/h 98.2% 0.0 mm 0 W/m2
02:59 2.9 °C 2.6 °C 1022.0 hPa NNE 2.5 km/h 4 km/h 98.2% 0.0 mm 0 W/m2
03:04 2.9 °C 2.6 °C 1022.0 hPa NNE 2.6 km/h 4.3 km/h 98% 0.0 mm 0 W/m2
03:09 2.9 °C 2.7 °C 1022.0 hPa NNE 2.6 km/h 4.7 km/h 98.3% 0.0 mm 0 W/m2
03:14 2.9 °C 2.8 °C 1022.0 hPa NE 1.9 km/h 4.7 km/h 99% 0.0 mm 0 W/m2
03:19 2.9 °C 2.8 °C 1022.0 hPa NNE 1.7 km/h 4.3 km/h 99% 0.0 mm 0 W/m2
03:24 2.9 °C 2.8 °C 1022.0 hPa NNE 1.1 km/h 4.3 km/h 99% 0.0 mm 0 W/m2
03:29 2.9 °C 2.6 °C 1022.4 hPa NNE 2.3 km/h 3.2 km/h 98.1% 0.0 mm 0 W/m2
03:34 2.9 °C 2.7 °C 1022.4 hPa NNE 2.3 km/h 4.7 km/h 98.8% 0.0 mm 0 W/m2
03:39 2.9 °C 2.8 °C 1022.4 hPa NNE 2.5 km/h 4.7 km/h 99% 0.0 mm 0 W/m2
03:44 2.9 °C 2.8 °C 1022.4 hPa NNE 2.6 km/h 4.7 km/h 99% 0.0 mm 0 W/m2
03:49 2.9 °C 2.8 °C 1022.4 hPa NNE 2.3 km/h 4.7 km/h 99% 0.0 mm 0 W/m2
03:54 2.9 °C 2.8 °C 1022.0 hPa NNE 2.8 km/h 4.7 km/h 99% 0.0 mm 0 W/m2
03:59 2.9 °C 2.8 °C 1022.0 hPa NNE 2.5 km/h 4.7 km/h 99% 0.0 mm 0 W/m2
04:04 2.9 °C 2.8 °C 1022.0 hPa NNE 3.5 km/h 5.5 km/h 99% 0.0 mm 0 W/m2
04:09 2.9 °C 2.8 °C 1022.0 hPa North 3.6 km/h 6.1 km/h 99% 0.0 mm 0 W/m2
04:14 2.9 °C 2.8 °C 1022.0 hPa NNE 3.2 km/h 6.1 km/h 99% 0.0 mm 0 W/m2
04:19 2.9 °C 2.8 °C 1022.0 hPa North 4 km/h 6.1 km/h 99% 0.0 mm 0 W/m2
04:24 2.9 °C 2.8 °C 1022.0 hPa NNE 4.1 km/h 6.4 km/h 99% 0.0 mm 0 W/m2
04:29 2.9 °C 2.8 °C 1022.0 hPa North 3.9 km/h 7.9 km/h 99% 0.0 mm 0 W/m2
04:34 2.9 °C 2.9 °C 1022.0 hPa NNE 3.4 km/h 7.9 km/h 99.7% 0.0 mm 0 W/m2
04:39 2.9 °C 2.9 °C 1022.0 hPa NNE 3.3 km/h 5.8 km/h 99.8% 0.0 mm 0 W/m2
04:44 2.9 °C 2.9 °C 1022.0 hPa NNE 3.6 km/h 6.1 km/h 100% 0.0 mm 0 W/m2
04:49 2.9 °C 2.9 °C 1022.0 hPa North 3.3 km/h 6.1 km/h 100% 0.0 mm 0 W/m2
04:54 2.9 °C 2.9 °C 1022.0 hPa North 3.9 km/h 4.7 km/h 100% 0.0 mm 0 W/m2
04:59 2.8 °C 2.8 °C 1022.0 hPa NNE 3.2 km/h 5.8 km/h 100% 0.0 mm 0 W/m2
05:04 2.8 °C 2.8 °C 1022.0 hPa North 3.1 km/h 4.7 km/h 100% 0.0 mm 0 W/m2
05:09 2.8 °C 2.8 °C 1022.0 hPa NNE 4.5 km/h 6.1 km/h 100% 0.0 mm 0 W/m2
05:14 2.8 °C 2.8 °C 1022.0 hPa North 3.3 km/h 6.1 km/h 100% 0.0 mm 0 W/m2
Juneau County Weather
Compliments of Weather Underground - 2 mb